createdAt,value
2022-12-11T00:01:18.755Z,125.20
2022-12-11T00:03:47.849Z,138.50
2022-12-11T00:06:18.748Z,127.33
2022-12-11T00:08:47.989Z,136.80
2022-12-11T00:11:18.428Z,127.93
2022-12-11T00:13:48.258Z,126.70
2022-12-11T00:16:17.139Z,114.47
2022-12-11T00:18:45.629Z,126.33
2022-12-11T00:21:16.068Z,149.57
2022-12-11T00:23:44.612Z,145.17
2022-12-11T00:26:15.805Z,148.13
2022-12-11T00:28:46.337Z,139.87
2022-12-11T00:31:16.846Z,150.37
2022-12-11T00:33:48.853Z,160.77
2022-12-11T00:36:18.912Z,147.70
2022-12-11T00:38:48.147Z,150.73
2022-12-11T00:41:16.834Z,161.40
2022-12-11T00:43:47.118Z,152.90
2022-12-11T00:46:15.795Z,162.63
2022-12-11T00:48:44.378Z,165.23
2022-12-11T00:51:12.918Z,164.60
2022-12-11T00:53:41.380Z,156.43
2022-12-11T00:56:15.001Z,156.97
2022-12-11T00:58:43.830Z,167.97
2022-12-11T01:01:19.620Z,155.30
2022-12-11T01:03:48.313Z,144.20
2022-12-11T01:06:18.600Z,162.10
2022-12-11T01:08:47.757Z,154.83
2022-12-11T01:11:16.857Z,145.50
2022-12-11T01:13:46.361Z,155.80
2022-12-11T01:16:17.263Z,153.73
2022-12-11T01:18:45.828Z,148.77
2022-12-11T01:21:15.240Z,166.60
2022-12-11T01:23:43.943Z,151.83
2022-12-11T01:26:15.643Z,154.63
2022-12-11T01:28:44.584Z,147.10
2022-12-11T01:31:16.172Z,137.60
2022-12-11T01:33:44.929Z,147.90
2022-12-11T01:36:15.133Z,147.33
2022-12-11T01:38:44.114Z,127.07
2022-12-11T01:41:13.095Z,151.43
2022-12-11T01:44:01.504Z,150.50
2022-12-11T01:46:32.801Z,145.63
2022-12-11T01:49:02.462Z,139.00
2022-12-11T01:51:34.634Z,134.93
2022-12-11T01:54:08.810Z,115.90
2022-12-11T01:56:39.053Z,130.53
2022-12-11T01:59:09.671Z,118.90
2022-12-11T02:01:44.305Z,139.43
2022-12-11T02:04:17.707Z,110.20
2022-12-11T02:06:48.947Z,123.97
2022-12-11T02:09:21.725Z,124.23
2022-12-11T02:12:01.869Z,143.00
2022-12-11T02:14:35.659Z,121.27
2022-12-11T02:17:12.448Z,125.80
2022-12-11T02:19:59.156Z,117.27
2022-12-11T02:22:39.703Z,113.23
2022-12-11T02:25:18.383Z,132.60
2022-12-11T02:27:56.526Z,128.37
2022-12-11T02:30:27.037Z,116.90
2022-12-11T02:32:57.731Z,118.70
2022-12-11T02:35:30.807Z,113.47
2022-12-11T02:38:03.946Z,111.17
2022-12-11T02:40:36.774Z,123.47
2022-12-11T02:43:09.513Z,108.73
2022-12-11T02:45:42.367Z,109.27
2022-12-11T02:48:13.367Z,104.60
2022-12-11T02:50:46.174Z,103.77
2022-12-11T02:53:19.441Z,119.30
2022-12-11T02:55:51.288Z,109.53
2022-12-11T02:58:23.504Z,93.97
2022-12-11T03:00:53.577Z,104.20
2022-12-11T03:03:23.706Z,94.73
2022-12-11T03:05:52.230Z,94.57
2022-12-11T03:08:20.976Z,83.30
2022-12-11T03:10:49.620Z,91.20
2022-12-11T03:13:21.917Z,100.53
2022-12-11T03:16:01.724Z,98.20
2022-12-11T03:18:36.318Z,93.30
2022-12-11T03:21:09.476Z,89.63
2022-12-11T03:23:45.993Z,79.97
2022-12-11T03:26:18.630Z,88.83
2022-12-11T03:28:50.818Z,83.77
2022-12-11T03:31:29.671Z,87.40
2022-12-11T03:34:03.995Z,79.80
2022-12-11T03:36:36.074Z,81.23
2022-12-11T03:39:08.414Z,85.47
2022-12-11T03:41:38.607Z,85.50
2022-12-11T03:44:08.170Z,78.77
2022-12-11T03:46:40.568Z,83.13
2022-12-11T03:49:15.584Z,71.50
2022-12-11T03:51:46.787Z,80.60
2022-12-11T03:54:16.617Z,92.13
2022-12-11T03:56:46.727Z,75.20
2022-12-11T03:59:15.255Z,78.40
2022-12-11T04:01:45.140Z,67.63
2022-12-11T04:04:13.695Z,72.10
2022-12-11T04:06:41.952Z,75.63
2022-12-11T04:09:10.375Z,81.83
2022-12-11T04:11:39.696Z,77.77
2022-12-11T04:14:27.714Z,77.87
2022-12-11T04:16:58.228Z,80.37
2022-12-11T04:19:44.444Z,78.47
2022-12-11T04:22:30.946Z,66.80
2022-12-11T04:24:59.240Z,77.87
2022-12-11T04:27:45.407Z,75.63
2022-12-11T04:30:16.742Z,89.23
2022-12-11T04:32:46.450Z,81.67
2022-12-11T04:35:15.251Z,85.07
2022-12-11T04:37:44.141Z,86.23
2022-12-11T04:40:15.001Z,80.00
2022-12-11T04:42:43.693Z,76.17
2022-12-11T04:45:13.198Z,75.03
2022-12-11T04:47:42.843Z,81.80
2022-12-11T04:50:14.481Z,78.20
2022-12-11T04:52:43.485Z,80.03
2022-12-11T04:55:13.562Z,81.00
2022-12-11T04:57:42.269Z,81.00
2022-12-11T05:00:12.987Z,76.53
2022-12-11T05:02:42.892Z,79.17
2022-12-11T05:05:13.419Z,77.53
2022-12-11T05:07:42.315Z,82.87
2022-12-11T05:10:11.427Z,75.63
2022-12-11T05:12:39.892Z,76.20
2022-12-11T05:15:09.787Z,75.83
2022-12-11T05:17:38.382Z,71.60
2022-12-11T05:20:08.060Z,71.83
2022-12-11T05:22:38.219Z,73.13
2022-12-11T05:25:08.109Z,76.00
2022-12-11T05:27:36.711Z,72.90
2022-12-11T05:30:06.097Z,77.53
2022-12-11T05:32:34.576Z,70.70
2022-12-11T05:35:03.821Z,62.07
2022-12-11T05:37:34.326Z,68.07
2022-12-11T05:40:06.365Z,66.23
2022-12-11T05:42:35.260Z,71.73
2022-12-11T05:45:03.686Z,69.77
2022-12-11T05:47:32.757Z,66.03
2022-12-11T05:50:01.516Z,68.87
2022-12-11T05:52:30.718Z,61.90
2022-12-11T05:54:59.549Z,66.83
2022-12-11T05:57:29.298Z,61.23
2022-12-11T05:59:57.628Z,65.63
2022-12-11T06:02:26.114Z,67.20
2022-12-11T06:04:54.770Z,62.37
2022-12-11T06:07:23.093Z,61.90
2022-12-11T06:09:51.511Z,69.93
2022-12-11T06:12:20.044Z,60.17
2022-12-11T06:14:50.006Z,60.40
2022-12-11T06:17:18.249Z,58.90
2022-12-11T06:19:46.655Z,59.07
2022-12-11T06:22:15.162Z,56.00
2022-12-11T06:24:43.434Z,55.97
2022-12-11T06:27:11.699Z,55.00
2022-12-11T06:29:40.136Z,58.97
2022-12-11T06:32:09.851Z,58.43
2022-12-11T06:34:38.288Z,59.03
2022-12-11T06:37:07.477Z,50.23
2022-12-11T06:39:35.950Z,57.97
2022-12-11T06:42:04.342Z,55.03
2022-12-11T06:44:33.012Z,61.83
2022-12-11T06:47:01.377Z,54.27
2022-12-11T06:49:31.756Z,52.13
2022-12-11T06:52:00.137Z,55.67
2022-12-11T06:54:28.991Z,45.87
2022-12-11T06:56:57.282Z,37.60
2022-12-11T06:59:25.647Z,48.33
2022-12-11T07:01:54.044Z,46.23
2022-12-11T07:04:24.766Z,45.23
2022-12-11T07:06:54.976Z,42.77
2022-12-11T07:09:24.151Z,43.43
2022-12-11T07:11:52.833Z,40.13
2022-12-11T07:14:21.687Z,37.97
2022-12-11T07:16:50.070Z,42.30
2022-12-11T07:19:18.672Z,43.10
2022-12-11T07:21:47.317Z,35.90
2022-12-11T07:24:17.131Z,35.27
2022-12-11T07:26:45.463Z,34.87
2022-12-11T07:29:13.962Z,35.40
2022-12-11T07:31:42.673Z,35.00
2022-12-11T07:34:13.774Z,31.57
2022-12-11T07:36:42.339Z,34.97
2022-12-11T07:39:12.503Z,35.17
2022-12-11T07:41:42.526Z,33.23
2022-12-11T07:44:12.404Z,34.23
2022-12-11T07:46:41.084Z,35.73
2022-12-11T07:49:09.864Z,31.63
2022-12-11T07:51:39.562Z,27.10
2022-12-11T07:54:11.275Z,34.27
2022-12-11T07:56:43.676Z,28.30
2022-12-11T07:59:14.081Z,27.60
2022-12-11T08:01:42.748Z,29.77
2022-12-11T08:04:15.605Z,32.53
2022-12-11T08:06:44.766Z,31.17
2022-12-11T08:09:20.702Z,28.40
2022-12-11T08:11:50.942Z,30.83
2022-12-11T08:14:21.332Z,32.10
2022-12-11T08:16:50.337Z,25.97
2022-12-11T08:19:19.166Z,29.43
2022-12-11T08:21:47.652Z,31.03
2022-12-11T08:24:20.298Z,28.37
2022-12-11T08:26:49.067Z,29.40
2022-12-11T08:29:17.465Z,29.40
2022-12-11T08:31:47.436Z,31.50
2022-12-11T08:34:16.012Z,24.93
2022-12-11T08:36:45.495Z,29.17
2022-12-11T08:39:13.832Z,26.57
2022-12-11T08:41:42.322Z,31.00
2022-12-11T08:44:16.681Z,29.30
2022-12-11T08:46:47.316Z,30.20
2022-12-11T08:49:15.809Z,26.23
2022-12-11T08:51:44.184Z,26.53
2022-12-11T08:54:12.894Z,24.53
2022-12-11T08:56:41.226Z,25.57
2022-12-11T08:59:09.706Z,30.53
2022-12-11T09:01:38.131Z,26.57
2022-12-11T09:04:08.274Z,27.87
2022-12-11T09:06:36.565Z,27.00
2022-12-11T09:09:05.828Z,27.33
2022-12-11T09:11:36.065Z,25.50
2022-12-11T09:14:07.666Z,27.13
2022-12-11T09:16:40.300Z,24.50
2022-12-11T09:19:13.764Z,26.90
2022-12-11T09:21:43.560Z,33.30
2022-12-11T09:24:14.138Z,29.63
2022-12-11T09:26:43.285Z,25.83
2022-12-11T09:29:12.179Z,26.83
2022-12-11T09:31:40.481Z,22.63
2022-12-11T09:34:13.322Z,32.63
2022-12-11T09:36:44.274Z,22.00
2022-12-11T09:39:15.081Z,26.57
2022-12-11T09:41:54.227Z,22.80
2022-12-11T09:44:31.629Z,25.27
2022-12-11T09:47:01.076Z,22.47
2022-12-11T09:49:36.519Z,24.33
2022-12-11T09:52:12.807Z,25.63
2022-12-11T09:54:49.293Z,24.23
2022-12-11T09:57:30.729Z,25.17
2022-12-11T10:00:11.487Z,22.80
2022-12-11T10:02:57.316Z,24.60
2022-12-11T10:05:37.483Z,22.80
2022-12-11T10:08:14.066Z,23.97
2022-12-11T10:10:45.488Z,28.60
2022-12-11T10:13:24.310Z,27.97
2022-12-11T10:15:57.872Z,26.83
2022-12-11T10:18:29.296Z,29.30
2022-12-11T10:21:03.499Z,26.20
2022-12-11T10:23:37.625Z,26.80
2022-12-11T10:26:09.376Z,24.93
2022-12-11T10:28:37.894Z,26.37
2022-12-11T10:31:17.243Z,27.57
2022-12-11T10:33:55.589Z,28.93
2022-12-11T10:36:29.256Z,30.87
2022-12-11T10:38:57.975Z,32.07
2022-12-11T10:41:38.128Z,26.57
2022-12-11T10:44:17.759Z,28.43
2022-12-11T10:46:47.323Z,33.20
2022-12-11T10:49:24.780Z,26.70
2022-12-11T10:51:56.258Z,28.40
2022-12-11T10:54:34.969Z,31.30
2022-12-11T10:57:05.635Z,31.00
2022-12-11T10:59:40.190Z,26.17
2022-12-11T11:02:23.197Z,29.00
2022-12-11T11:04:52.617Z,26.83
2022-12-11T11:07:24.791Z,26.87
2022-12-11T11:10:06.069Z,27.17
2022-12-11T11:12:40.264Z,24.20
2022-12-11T11:15:13.620Z,24.17
2022-12-11T11:17:54.586Z,28.00
2022-12-11T11:20:26.272Z,23.97
2022-12-11T11:22:58.983Z,23.33
2022-12-11T11:25:29.073Z,27.83
2022-12-11T11:27:59.844Z,23.87
2022-12-11T11:30:31.375Z,29.27
2022-12-11T11:33:03.545Z,22.03
2022-12-11T11:35:34.089Z,23.90
2022-12-11T11:38:12.934Z,20.97
2022-12-11T11:40:45.992Z,22.23
2022-12-11T11:43:22.642Z,20.53
2022-12-11T11:45:56.446Z,21.90
2022-12-11T11:48:40.860Z,24.10
2022-12-11T11:51:16.557Z,24.17
2022-12-11T11:53:50.915Z,23.50
2022-12-11T11:56:23.164Z,18.83
2022-12-11T11:58:59.424Z,16.13
2022-12-11T12:01:28.357Z,18.97
2022-12-11T12:03:57.608Z,14.70
2022-12-11T12:06:56.932Z,19.37
2022-12-11T12:09:40.445Z,18.63
2022-12-11T12:12:22.738Z,18.87
2022-12-11T12:15:18.374Z,17.40
2022-12-11T12:17:55.952Z,18.20
2022-12-11T12:20:32.207Z,17.30
2022-12-11T12:23:24.246Z,20.67
2022-12-11T12:26:00.512Z,16.57
2022-12-11T12:28:37.297Z,16.47
2022-12-11T12:31:20.621Z,17.37
2022-12-11T12:33:59.855Z,20.73
2022-12-11T12:36:35.694Z,21.20
2022-12-11T12:39:12.790Z,20.63
2022-12-11T12:41:53.781Z,21.43
2022-12-11T12:44:25.189Z,17.30
2022-12-11T12:47:01.277Z,22.70
2022-12-11T12:49:37.072Z,21.13
2022-12-11T12:52:07.666Z,21.20
2022-12-11T12:54:37.472Z,20.07
2022-12-11T12:57:08.323Z,21.53
2022-12-11T12:59:36.676Z,22.37
2022-12-11T13:02:06.592Z,20.87
2022-12-11T13:04:55.941Z,24.83
2022-12-11T13:07:30.167Z,19.50
2022-12-11T13:10:01.826Z,22.17
2022-12-11T13:12:43.115Z,21.70
2022-12-11T13:15:37.462Z,18.73
2022-12-11T13:18:23.816Z,22.97
2022-12-11T13:20:53.518Z,20.63
2022-12-11T13:23:29.338Z,22.13
2022-12-11T13:25:59.889Z,21.80
2022-12-11T13:28:46.984Z,24.10
2022-12-11T13:31:35.124Z,27.10
2022-12-11T13:34:25.191Z,23.03
2022-12-11T13:36:55.332Z,22.80
2022-12-11T13:39:27.727Z,21.00
2022-12-11T13:42:01.131Z,19.10
2022-12-11T13:44:33.029Z,20.97
2022-12-11T13:47:04.337Z,21.40
2022-12-11T13:49:37.194Z,19.43
2022-12-11T13:52:06.753Z,20.00
2022-12-11T13:54:37.568Z,21.27
2022-12-11T13:57:17.718Z,20.53
2022-12-11T13:59:53.211Z,18.63
2022-12-11T14:02:26.938Z,19.87
2022-12-11T14:04:58.054Z,17.47
2022-12-11T14:07:29.812Z,17.07
2022-12-11T14:10:02.663Z,18.30
2022-12-11T14:12:32.879Z,18.60
2022-12-11T14:15:04.723Z,17.60
2022-12-11T14:17:35.532Z,20.90
2022-12-11T14:20:07.803Z,15.87
2022-12-11T14:22:36.781Z,19.57
2022-12-11T14:25:21.880Z,15.27
2022-12-11T14:27:52.575Z,16.73
2022-12-11T14:30:27.559Z,21.27
2022-12-11T14:32:59.621Z,18.10
2022-12-11T14:35:37.061Z,18.87
2022-12-11T14:38:14.387Z,16.57
2022-12-11T14:40:46.475Z,16.83
2022-12-11T14:43:21.079Z,16.50
2022-12-11T14:45:55.500Z,17.43
2022-12-11T14:48:27.254Z,17.23
2022-12-11T14:50:58.918Z,20.93
2022-12-11T14:53:31.281Z,16.20
2022-12-11T14:56:04.376Z,17.87
2022-12-11T14:58:35.003Z,17.90
2022-12-11T15:01:07.042Z,18.43
2022-12-11T15:03:37.088Z,17.53
2022-12-11T15:06:24.581Z,19.27
2022-12-11T15:08:53.466Z,19.53
2022-12-11T15:11:22.907Z,17.33
2022-12-11T15:13:54.603Z,20.23
2022-12-11T15:16:27.895Z,18.37
2022-12-11T15:18:58.878Z,18.27
2022-12-11T15:21:30.901Z,20.17
2022-12-11T15:24:01.091Z,18.77
2022-12-11T15:26:38.300Z,17.50
2022-12-11T15:29:23.840Z,18.43
2022-12-11T15:32:02.704Z,18.30
2022-12-11T15:34:35.699Z,18.17
2022-12-11T15:37:04.377Z,17.47
2022-12-11T15:39:33.090Z,20.27
2022-12-11T15:42:01.449Z,17.23
2022-12-11T15:44:29.804Z,17.73
2022-12-11T15:46:58.160Z,20.23
2022-12-11T15:49:28.060Z,20.37
2022-12-11T15:51:56.361Z,20.60
2022-12-11T15:54:24.765Z,20.93
2022-12-11T15:56:53.225Z,18.30
2022-12-11T15:59:21.930Z,24.07
2022-12-11T16:01:51.000Z,19.50
2022-12-11T16:04:19.628Z,20.10
2022-12-11T16:06:49.413Z,21.80
2022-12-11T16:09:17.983Z,23.13
2022-12-11T16:11:46.492Z,20.00
2022-12-11T16:14:15.046Z,17.93
2022-12-11T16:16:43.467Z,25.20
2022-12-11T16:19:11.888Z,22.50
2022-12-11T16:21:40.291Z,19.80
2022-12-11T16:24:10.228Z,21.60
2022-12-11T16:26:38.693Z,22.73
2022-12-11T16:29:07.074Z,21.73
2022-12-11T16:31:35.457Z,20.70
2022-12-11T16:34:03.799Z,22.10
2022-12-11T16:36:32.252Z,23.33
2022-12-11T16:39:00.664Z,21.90
2022-12-11T16:41:30.380Z,25.20
2022-12-11T16:43:58.765Z,18.57
2022-12-11T16:46:27.185Z,20.70
2022-12-11T16:48:55.559Z,18.53
2022-12-11T16:51:24.267Z,22.27
2022-12-11T16:53:52.871Z,19.47
2022-12-11T16:56:21.344Z,22.67
2022-12-11T16:58:51.191Z,21.40
2022-12-11T17:01:19.622Z,19.27
2022-12-11T17:03:48.139Z,24.70
2022-12-11T17:06:18.462Z,23.93
2022-12-11T17:08:47.385Z,23.77
2022-12-11T17:11:17.868Z,22.03
2022-12-11T17:13:46.776Z,20.17
2022-12-11T17:16:18.298Z,23.37
2022-12-11T17:18:46.789Z,21.17
2022-12-11T17:21:17.533Z,20.87
2022-12-11T17:23:46.278Z,23.23
2022-12-11T17:26:15.535Z,25.70
2022-12-11T17:28:44.194Z,20.57
2022-12-11T17:31:16.627Z,25.50
2022-12-11T17:33:47.542Z,25.30
2022-12-11T17:36:17.885Z,23.27
2022-12-11T17:38:46.610Z,25.53
2022-12-11T17:41:20.449Z,20.77
2022-12-11T17:43:50.243Z,21.10
2022-12-11T17:46:19.662Z,23.57
2022-12-11T17:48:50.037Z,21.53
2022-12-11T17:51:24.088Z,21.50
2022-12-11T17:53:55.400Z,26.17
2022-12-11T17:56:24.323Z,23.23
2022-12-11T17:58:52.904Z,24.57
2022-12-11T18:01:21.467Z,25.93
2022-12-11T18:03:51.350Z,22.93
2022-12-11T18:06:19.814Z,27.23
2022-12-11T18:08:48.806Z,27.93
2022-12-11T18:11:19.164Z,36.33
2022-12-11T18:13:48.860Z,21.53
2022-12-11T18:16:19.407Z,22.47
2022-12-11T18:18:49.290Z,23.43
2022-12-11T18:21:22.759Z,25.50
2022-12-11T18:23:51.596Z,21.50
2022-12-11T18:26:21.678Z,23.57
2022-12-11T18:28:52.011Z,20.50
2022-12-11T18:31:21.813Z,25.67
2022-12-11T18:33:50.705Z,22.00
2022-12-11T18:36:21.495Z,23.77
2022-12-11T18:38:50.778Z,23.57
2022-12-11T18:41:20.499Z,23.23
2022-12-11T18:43:49.374Z,25.63
2022-12-11T18:46:19.886Z,23.87
2022-12-11T18:48:49.566Z,23.93
2022-12-11T18:51:22.696Z,23.87
2022-12-11T18:53:52.020Z,22.60
2022-12-11T18:56:21.754Z,24.50
2022-12-11T18:58:52.153Z,25.97
2022-12-11T19:01:22.769Z,20.47
2022-12-11T19:03:51.822Z,22.73
2022-12-11T19:06:24.503Z,23.23
2022-12-11T19:08:53.094Z,22.93
2022-12-11T19:11:24.675Z,24.70
2022-12-11T19:13:53.867Z,20.77
2022-12-11T19:16:24.839Z,28.00
2022-12-11T19:18:54.209Z,54.63
2022-12-11T19:21:23.944Z,44.57
2022-12-11T19:23:52.377Z,24.57
2022-12-11T19:26:23.763Z,29.83
2022-12-11T19:28:53.449Z,23.33
2022-12-11T19:31:24.051Z,31.43
2022-12-11T19:33:52.732Z,70.30
2022-12-11T19:36:24.994Z,35.53
2022-12-11T19:38:57.958Z,30.43
2022-12-11T19:41:29.604Z,22.93
2022-12-11T19:43:59.865Z,22.93
2022-12-11T19:46:29.621Z,119.40
2022-12-11T19:48:59.978Z,141.93
2022-12-11T19:51:34.680Z,42.13
2022-12-11T19:54:03.789Z,38.03
2022-12-11T19:56:33.012Z,36.80
2022-12-11T19:59:03.270Z,51.80
2022-12-11T20:01:33.601Z,54.20
2022-12-11T20:04:03.765Z,69.83
2022-12-11T20:06:35.692Z,135.10
2022-12-11T20:09:06.371Z,160.33
2022-12-11T20:11:36.202Z,46.63
2022-12-11T20:14:04.860Z,162.93
2022-12-11T20:17:02.095Z,77.97
2022-12-11T20:19:22.402Z,40.33
2022-12-11T20:21:52.323Z,35.23
2022-12-11T20:24:21.269Z,27.47
2022-12-11T20:26:49.960Z,26.57
2022-12-11T20:29:18.451Z,23.90
2022-12-11T20:31:47.059Z,23.67
2022-12-11T20:34:15.528Z,32.57
2022-12-11T20:36:44.371Z,56.23
2022-12-11T20:39:15.153Z,86.90
2022-12-11T20:41:43.887Z,62.50
2022-12-11T20:44:12.269Z,31.40
2022-12-11T20:46:40.916Z,37.33
2022-12-11T20:49:13.242Z,54.67
2022-12-11T20:51:42.291Z,31.53
2022-12-11T20:54:10.813Z,38.67
2022-12-11T20:56:40.863Z,29.33
2022-12-11T20:59:13.518Z,29.53
2022-12-11T21:01:42.441Z,25.17
2022-12-11T21:04:11.650Z,22.13
2022-12-11T21:06:42.122Z,27.90
2022-12-11T21:09:13.936Z,23.47
2022-12-11T21:11:43.929Z,22.73
2022-12-11T21:14:12.395Z,28.40
2022-12-11T21:16:41.018Z,29.20
2022-12-11T21:19:15.124Z,24.70
2022-12-11T21:21:46.488Z,25.70
2022-12-11T21:24:17.496Z,22.27
2022-12-11T21:26:48.130Z,24.13
2022-12-11T21:29:17.177Z,23.33
2022-12-11T21:31:46.156Z,21.97
2022-12-11T21:34:16.047Z,23.50
2022-12-11T21:36:47.007Z,24.20
2022-12-11T21:39:16.491Z,22.70
2022-12-11T21:41:45.017Z,23.93
2022-12-11T21:45:25.879Z,22.07
2022-12-11T21:47:03.357Z,23.07
2022-12-11T21:49:31.781Z,26.10
2022-12-11T21:52:00.486Z,24.30
2022-12-11T21:54:28.946Z,26.37
2022-12-11T21:56:58.166Z,25.73
2022-12-11T21:59:28.715Z,23.57
2022-12-11T22:01:57.661Z,32.60
2022-12-11T22:04:28.603Z,23.83
2022-12-11T22:06:57.057Z,24.10
2022-12-11T22:09:25.679Z,21.80
2022-12-11T22:11:58.360Z,25.90
2022-12-11T22:14:30.982Z,24.23
2022-12-11T22:17:00.847Z,25.90
2022-12-11T22:19:32.716Z,24.90
2022-12-11T22:22:01.555Z,24.57
2022-12-11T22:24:30.028Z,23.77
2022-12-11T22:26:58.566Z,26.33
2022-12-11T22:29:28.791Z,26.73
2022-12-11T22:31:57.744Z,25.60
2022-12-11T22:34:26.213Z,26.30
2022-12-11T22:36:54.690Z,23.43
2022-12-11T22:39:24.651Z,23.17
2022-12-11T22:41:53.167Z,31.50
2022-12-11T22:44:22.918Z,28.93
2022-12-11T22:46:52.710Z,25.50
2022-12-11T22:49:21.453Z,29.17
2022-12-11T22:51:50.304Z,26.93
2022-12-11T22:54:18.848Z,30.10
2022-12-11T22:56:47.259Z,29.67
2022-12-11T22:59:15.736Z,32.07
2022-12-11T23:01:44.333Z,32.70
2022-12-11T23:04:14.218Z,30.47
2022-12-11T23:06:42.577Z,27.33
2022-12-11T23:09:12.214Z,33.87
2022-12-11T23:11:41.389Z,29.83
2022-12-11T23:14:15.102Z,27.83
2022-12-11T23:16:44.031Z,29.00
2022-12-11T23:19:14.762Z,31.93
2022-12-11T23:21:43.476Z,34.93
2022-12-11T23:24:13.153Z,31.93
2022-12-11T23:26:41.795Z,28.00
2022-12-11T23:29:10.278Z,31.27
2022-12-11T23:31:38.681Z,31.23
2022-12-11T23:34:07.074Z,30.80
2022-12-11T23:36:36.960Z,29.90
2022-12-11T23:39:05.577Z,30.37
2022-12-11T23:41:34.017Z,31.27
2022-12-11T23:44:02.389Z,27.63
2022-12-11T23:46:30.991Z,24.33
2022-12-11T23:48:59.285Z,30.67
2022-12-11T23:51:27.709Z,27.50
2022-12-11T23:53:57.395Z,27.60
2022-12-11T23:56:28.437Z,30.20
2022-12-11T23:58:57.787Z,33.53
